sensor_id;sensor_type;location;lat;lon;timestamp;pressure;altitude;pressure_sealevel;temperature;humidity
70589;BME280;58152;49.202;18.744;2023-02-21T00:01:24;97089.34;;;5.40;74.71
70589;BME280;58152;49.202;18.744;2023-02-21T00:04:08;97088.50;;;5.40;74.56
70589;BME280;58152;49.202;18.744;2023-02-21T00:06:52;97085.75;;;5.44;74.69
70589;BME280;58152;49.202;18.744;2023-02-21T00:09:37;97091.88;;;5.43;74.51
70589;BME280;58152;49.202;18.744;2023-02-21T00:12:21;97095.16;;;5.50;74.17
70589;BME280;58152;49.202;18.744;2023-02-21T00:15:06;97090.81;;;5.50;74.14
70589;BME280;58152;49.202;18.744;2023-02-21T00:17:50;97094.19;;;5.52;73.86
70589;BME280;58152;49.202;18.744;2023-02-21T00:20:35;97085.50;;;5.53;73.68
70589;BME280;58152;49.202;18.744;2023-02-21T00:23:19;97092.19;;;5.62;73.41
70589;BME280;58152;49.202;18.744;2023-02-21T00:26:03;97089.56;;;5.64;73.35
70589;BME280;58152;49.202;18.744;2023-02-21T00:28:46;97086.84;;;5.67;73.25
70589;BME280;58152;49.202;18.744;2023-02-21T00:31:31;97069.47;;;5.67;73.43
70589;BME280;58152;49.202;18.744;2023-02-21T00:34:15;97079.78;;;5.70;73.29
70589;BME280;58152;49.202;18.744;2023-02-21T00:36:59;97083.31;;;5.69;73.08
70589;BME280;58152;49.202;18.744;2023-02-21T00:39:43;97078.94;;;5.70;73.01
70589;BME280;58152;49.202;18.744;2023-02-21T00:42:26;97089.16;;;5.76;73.13
70589;BME280;58152;49.202;18.744;2023-02-21T00:45:10;97088.22;;;5.78;72.77
70589;BME280;58152;49.202;18.744;2023-02-21T00:47:54;97093.38;;;5.80;72.67
70589;BME280;58152;49.202;18.744;2023-02-21T00:50:38;97083.72;;;5.83;72.48
70589;BME280;58152;49.202;18.744;2023-02-21T00:53:23;97084.53;;;5.85;72.67
70589;BME280;58152;49.202;18.744;2023-02-21T00:56:07;97081.03;;;5.86;72.54
70589;BME280;58152;49.202;18.744;2023-02-21T00:58:51;97074.03;;;5.89;72.48
70589;BME280;58152;49.202;18.744;2023-02-21T01:01:35;97076.56;;;5.90;72.18
70589;BME280;58152;49.202;18.744;2023-02-21T01:04:19;97052.22;;;5.93;71.99
70589;BME280;58152;49.202;18.744;2023-02-21T01:07:03;97059.06;;;5.95;71.66
70589;BME280;58152;49.202;18.744;2023-02-21T01:09:47;97057.22;;;6.00;71.34
70589;BME280;58152;49.202;18.744;2023-02-21T01:12:31;97048.50;;;6.01;71.65
70589;BME280;58152;49.202;18.744;2023-02-21T01:15:15;97047.53;;;6.04;71.60
70589;BME280;58152;49.202;18.744;2023-02-21T01:17:59;97044.81;;;6.07;71.48
70589;BME280;58152;49.202;18.744;2023-02-21T01:20:43;97049.19;;;6.06;71.35
70589;BME280;58152;49.202;18.744;2023-02-21T01:23:26;97047.38;;;6.08;71.54
70589;BME280;58152;49.202;18.744;2023-02-21T01:26:10;97041.28;;;6.09;71.32
70589;BME280;58152;49.202;18.744;2023-02-21T01:28:54;97046.50;;;6.09;70.93
70589;BME280;58152;49.202;18.744;2023-02-21T01:31:38;97040.38;;;6.10;71.35
70589;BME280;58152;49.202;18.744;2023-02-21T01:34:22;97041.16;;;6.13;71.02
70589;BME280;58152;49.202;18.744;2023-02-21T01:37:06;97050.59;;;6.17;70.96
70589;BME280;58152;49.202;18.744;2023-02-21T01:39:50;97050.59;;;6.17;70.91
70589;BME280;58152;49.202;18.744;2023-02-21T01:42:34;97043.53;;;6.20;70.96
70589;BME280;58152;49.202;18.744;2023-02-21T01:48:14;97035.81;;;6.17;71.29
70589;BME280;58152;49.202;18.744;2023-02-21T01:51:00;97033.16;;;6.19;71.10
70589;BME280;58152;49.202;18.744;2023-02-21T01:53:46;97027.09;;;6.18;71.14
70589;BME280;58152;49.202;18.744;2023-02-21T01:56:31;97040.94;;;6.20;71.08
70589;BME280;58152;49.202;18.744;2023-02-21T01:59:16;97032.25;;;6.20;70.99
70589;BME280;58152;49.202;18.744;2023-02-21T02:02:08;97022.75;;;6.19;71.09
70589;BME280;58152;49.202;18.744;2023-02-21T02:04:54;97031.34;;;6.21;70.95
70589;BME280;58152;49.202;18.744;2023-02-21T02:07:39;97034.97;;;6.17;70.73
70589;BME280;58152;49.202;18.744;2023-02-21T02:10:23;97037.41;;;6.21;71.11
70589;BME280;58152;49.202;18.744;2023-02-21T02:13:25;97033.03;;;6.23;70.64
70589;BME280;58152;49.202;18.744;2023-02-21T02:18:43;97019.88;;;6.26;70.45
70589;BME280;58152;49.202;18.744;2023-02-21T02:21:41;97028.50;;;6.28;70.35
70589;BME280;58152;49.202;18.744;2023-02-21T02:24:47;97024.22;;;6.26;70.38
70589;BME280;58152;49.202;18.744;2023-02-21T02:32:36;97014.63;;;6.28;70.69
70589;BME280;58152;49.202;18.744;2023-02-21T02:35:21;97004.94;;;6.31;70.43
70589;BME280;58152;49.202;18.744;2023-02-21T02:40:33;97003.13;;;6.33;70.21
70589;BME280;58152;49.202;18.744;2023-02-21T02:43:05;96999.63;;;6.34;70.40
70589;BME280;58152;49.202;18.744;2023-02-21T02:45:43;96999.63;;;6.34;70.38
70589;BME280;58152;49.202;18.744;2023-02-21T02:48:41;97003.94;;;6.35;69.76
70589;BME280;58152;49.202;18.744;2023-02-21T02:51:11;97008.97;;;6.40;70.42
70589;BME280;58152;49.202;18.744;2023-02-21T02:53:37;97005.47;;;6.41;70.25
70589;BME280;58152;49.202;18.744;2023-02-21T02:56:08;96997.78;;;6.38;70.25
70589;BME280;58152;49.202;18.744;2023-02-21T02:58:42;97006.28;;;6.43;69.68
70589;BME280;58152;49.202;18.744;2023-02-21T03:11:19;97012.97;;;6.50;69.69
70589;BME280;58152;49.202;18.744;2023-02-21T03:13:50;97009.47;;;6.51;69.79
70589;BME280;58152;49.202;18.744;2023-02-21T03:16:32;97013.84;;;6.51;69.50
70589;BME280;58152;49.202;18.744;2023-02-21T03:21:34;97011.88;;;6.57;69.75
70589;BME280;58152;49.202;18.744;2023-02-21T03:24:03;97023.13;;;6.58;69.03
70589;BME280;58152;49.202;18.744;2023-02-21T03:26:34;97010.16;;;6.56;69.70
70589;BME280;58152;49.202;18.744;2023-02-21T03:29:01;97014.56;;;6.54;69.29
70589;BME280;58152;49.202;18.744;2023-02-21T03:31:32;97027.41;;;6.60;69.04
70589;BME280;58152;49.202;18.744;2023-02-21T03:34:00;97005.72;;;6.60;69.22
70589;BME280;58152;49.202;18.744;2023-02-21T03:36:29;96999.50;;;6.62;69.19
70589;BME280;58152;49.202;18.744;2023-02-21T03:38:55;96989.16;;;6.61;69.03
70589;BME280;58152;49.202;18.744;2023-02-21T03:41:20;97003.78;;;6.65;69.22
70589;BME280;58152;49.202;18.744;2023-02-21T03:43:46;96998.66;;;6.62;69.48
70589;BME280;58152;49.202;18.744;2023-02-21T03:46:11;96998.59;;;6.63;69.29
70589;BME280;58152;49.202;18.744;2023-02-21T03:48:37;97005.47;;;6.66;68.85
70589;BME280;58152;49.202;18.744;2023-02-21T03:51:03;97002.03;;;6.66;69.29
70589;BME280;58152;49.202;18.744;2023-02-21T03:53:29;97005.47;;;6.66;69.36
70589;BME280;58152;49.202;18.744;2023-02-21T03:55:54;97011.59;;;6.65;68.78
70589;BME280;58152;49.202;18.744;2023-02-21T03:58:20;96997.66;;;6.66;69.16
70589;BME280;58152;49.202;18.744;2023-02-21T04:00:46;96995.81;;;6.70;68.73
70589;BME280;58152;49.202;18.744;2023-02-21T04:03:11;97008.00;;;6.69;69.34
70589;BME280;58152;49.202;18.744;2023-02-21T04:05:37;97005.38;;;6.69;68.85
70589;BME280;58152;49.202;18.744;2023-02-21T04:08:03;97004.41;;;6.72;69.04
70589;BME280;58152;49.202;18.744;2023-02-21T04:10:28;97006.91;;;6.75;68.82
70589;BME280;58152;49.202;18.744;2023-02-21T04:12:54;97009.56;;;6.73;68.65
70589;BME280;58152;49.202;18.744;2023-02-21T04:15:19;97006.06;;;6.74;68.70
70589;BME280;58152;49.202;18.744;2023-02-21T04:17:45;97010.38;;;6.75;68.73
70589;BME280;58152;49.202;18.744;2023-02-21T04:20:10;97006.84;;;6.76;68.67
70589;BME280;58152;49.202;18.744;2023-02-21T04:22:36;97008.69;;;6.74;68.56
70589;BME280;58152;49.202;18.744;2023-02-21T04:25:01;97009.47;;;6.76;68.91
70589;BME280;58152;49.202;18.744;2023-02-21T04:27:26;97004.31;;;6.75;69.06
70589;BME280;58152;49.202;18.744;2023-02-21T04:29:52;97013.81;;;6.76;68.56
70589;BME280;58152;49.202;18.744;2023-02-21T04:32:17;97001.56;;;6.78;68.55
70589;BME280;58152;49.202;18.744;2023-02-21T04:34:43;97007.81;;;6.74;68.86
70589;BME280;58152;49.202;18.744;2023-02-21T04:37:08;96997.34;;;6.75;68.15
70589;BME280;58152;49.202;18.744;2023-02-21T04:39:33;97002.31;;;6.81;69.21
70589;BME280;58152;49.202;18.744;2023-02-21T04:41:59;97003.84;;;6.87;69.24
70589;BME280;58152;49.202;18.744;2023-02-21T04:44:24;96998.44;;;6.93;68.50
70589;BME280;58152;49.202;18.744;2023-02-21T04:46:50;96988.94;;;6.91;68.17
70589;BME280;58152;49.202;18.744;2023-02-21T04:49:15;97001.81;;;6.95;68.58
70589;BME280;58152;49.202;18.744;2023-02-21T04:51:40;96990.72;;;6.90;68.02
70589;BME280;58152;49.202;18.744;2023-02-21T04:54:06;96997.63;;;6.91;68.09
70589;BME280;58152;49.202;18.744;2023-02-21T04:56:32;96984.56;;;6.91;67.87
70589;BME280;58152;49.202;18.744;2023-02-21T04:58:57;97003.69;;;6.92;68.12
70589;BME280;58152;49.202;18.744;2023-02-21T05:01:27;97000.28;;;6.90;68.14
70589;BME280;58152;49.202;18.744;2023-02-21T05:03:53;97007.28;;;6.89;68.40
70589;BME280;58152;49.202;18.744;2023-02-21T05:06:20;96996.84;;;6.89;68.62
70589;BME280;58152;49.202;18.744;2023-02-21T05:08:46;97001.13;;;6.90;68.15
70589;BME280;58152;49.202;18.744;2023-02-21T05:11:11;96999.38;;;6.91;68.04
70589;BME280;58152;49.202;18.744;2023-02-21T05:13:37;96991.56;;;6.91;68.72
70589;BME280;58152;49.202;18.744;2023-02-21T05:16:02;96988.19;;;6.87;68.34
70589;BME280;58152;49.202;18.744;2023-02-21T05:18:28;97000.22;;;6.91;68.20
70589;BME280;58152;49.202;18.744;2023-02-21T05:20:54;96996.00;;;6.88;68.85
70589;BME280;58152;49.202;18.744;2023-02-21T05:23:20;96993.38;;;6.88;68.45
70589;BME280;58152;49.202;18.744;2023-02-21T05:25:59;97001.97;;;6.91;68.94
70589;BME280;58152;49.202;18.744;2023-02-21T05:28:24;96998.53;;;6.90;68.58
70589;BME280;58152;49.202;18.744;2023-02-21T05:30:50;97004.50;;;6.94;68.84
70589;BME280;58152;49.202;18.744;2023-02-21T05:33:18;97000.19;;;6.93;68.77
70589;BME280;58152;49.202;18.744;2023-02-21T05:35:43;97000.34;;;6.88;68.74
70589;BME280;58152;49.202;18.744;2023-02-21T05:38:12;96996.91;;;6.87;68.84
70589;BME280;58152;49.202;18.744;2023-02-21T05:40:37;96997.63;;;6.91;68.27
70589;BME280;58152;49.202;18.744;2023-02-21T05:43:03;97001.03;;;6.93;68.30
70589;BME280;58152;49.202;18.744;2023-02-21T05:45:28;96999.44;;;6.89;68.41
70589;BME280;58152;49.202;18.744;2023-02-21T05:47:53;96996.72;;;6.92;68.64
70589;BME280;58152;49.202;18.744;2023-02-21T05:50:28;97002.66;;;6.96;68.64
70589;BME280;58152;49.202;18.744;2023-02-21T05:52:54;97003.59;;;6.95;68.36
70589;BME280;58152;49.202;18.744;2023-02-21T05:55:20;97007.09;;;6.94;68.68
70589;BME280;58152;49.202;18.744;2023-02-21T05:57:45;97004.50;;;6.94;68.88
70589;BME280;58152;49.202;18.744;2023-02-21T06:00:19;97008.72;;;6.96;68.76
70589;BME280;58152;49.202;18.744;2023-02-21T06:02:45;97002.78;;;6.93;69.07
70589;BME280;58152;49.202;18.744;2023-02-21T06:05:11;97000.97;;;6.95;68.23
70589;BME280;58152;49.202;18.744;2023-02-21T06:07:37;97001.88;;;6.94;68.83
70589;BME280;58152;49.202;18.744;2023-02-21T06:10:04;97018.28;;;6.97;68.63
70589;BME280;58152;49.202;18.744;2023-02-21T06:12:30;97013.91;;;6.98;69.10
70589;BME280;58152;49.202;18.744;2023-02-21T06:14:55;97004.44;;;6.95;69.02
70589;BME280;58152;49.202;18.744;2023-02-21T06:17:21;97011.34;;;6.96;68.83
70589;BME280;58152;49.202;18.744;2023-02-21T06:19:46;97019.00;;;7.01;68.99
70589;BME280;58152;49.202;18.744;2023-02-21T06:22:12;97006.94;;;6.98;69.01
70589;BME280;58152;49.202;18.744;2023-02-21T06:24:38;97018.13;;;7.02;68.99
70589;BME280;58152;49.202;18.744;2023-02-21T06:27:09;97018.97;;;7.02;68.62
70589;BME280;58152;49.202;18.744;2023-02-21T06:29:34;97012.81;;;7.03;68.99
70589;BME280;58152;49.202;18.744;2023-02-21T06:32:00;97022.31;;;7.06;68.57
70589;BME280;58152;49.202;18.744;2023-02-21T06:34:26;97028.31;;;7.08;68.54
70589;BME280;58152;49.202;18.744;2023-02-21T06:36:54;97030.00;;;7.09;68.67
70589;BME280;58152;49.202;18.744;2023-02-21T06:39:20;97029.97;;;7.10;68.68
70589;BME280;58152;49.202;18.744;2023-02-21T06:41:48;97024.84;;;7.07;68.71
70589;BME280;58152;49.202;18.744;2023-02-21T06:44:20;97030.81;;;7.11;68.76
70589;BME280;58152;49.202;18.744;2023-02-21T06:46:47;97017.81;;;7.09;68.94
70589;BME280;58152;49.202;18.744;2023-02-21T06:49:15;97028.22;;;7.11;69.13
70589;BME280;58152;49.202;18.744;2023-02-21T06:51:41;97033.28;;;7.14;68.64
70589;BME280;58152;49.202;18.744;2023-02-21T06:54:07;97024.75;;;7.10;69.02
70589;BME280;58152;49.202;18.744;2023-02-21T06:56:34;97037.50;;;7.18;68.46
70589;BME280;58152;49.202;18.744;2023-02-21T06:58:59;97028.88;;;7.16;68.80
70589;BME280;58152;49.202;18.744;2023-02-21T07:01:26;97022.69;;;7.19;68.65
70589;BME280;58152;49.202;18.744;2023-02-21T07:03:56;97027.06;;;7.18;68.83
70589;BME280;58152;49.202;18.744;2023-02-21T07:06:25;97029.63;;;7.20;69.24
70589;BME280;58152;49.202;18.744;2023-02-21T07:08:50;97034.69;;;7.24;68.73
70589;BME280;58152;49.202;18.744;2023-02-21T07:11:17;97034.63;;;7.26;69.31
70589;BME280;58152;49.202;18.744;2023-02-21T07:14:01;97028.47;;;7.27;68.79
70589;BME280;58152;49.202;18.744;2023-02-21T07:16:26;97035.41;;;7.28;68.95
70589;BME280;58152;49.202;18.744;2023-02-21T07:18:52;97036.31;;;7.27;68.88
70589;BME280;58152;49.202;18.744;2023-02-21T07:21:19;97035.47;;;7.26;68.94
70589;BME280;58152;49.202;18.744;2023-02-21T07:23:45;97031.03;;;7.28;69.29
70589;BME280;58152;49.202;18.744;2023-02-21T07:26:14;97031.00;;;7.30;69.25
70589;BME280;58152;49.202;18.744;2023-02-21T07:28:40;97028.38;;;7.30;69.01
70589;BME280;58152;49.202;18.744;2023-02-21T07:31:05;97028.22;;;7.34;69.04
70589;BME280;58152;49.202;18.744;2023-02-21T07:33:31;97024.63;;;7.37;69.34
70589;BME280;58152;49.202;18.744;2023-02-21T07:35:57;97029.78;;;7.38;69.38
70589;BME280;58152;49.202;18.744;2023-02-21T07:38:27;97035.72;;;7.42;68.74
70589;BME280;58152;49.202;18.744;2023-02-21T07:40:54;97040.94;;;7.42;68.87
70589;BME280;58152;49.202;18.744;2023-02-21T07:43:20;97041.84;;;7.41;68.94
70589;BME280;58152;49.202;18.744;2023-02-21T07:45:48;97037.31;;;7.46;69.52
70589;BME280;58152;49.202;18.744;2023-02-21T07:48:14;97037.31;;;7.46;68.83
70589;BME280;58152;49.202;18.744;2023-02-21T07:50:43;97039.81;;;7.49;68.74
70589;BME280;58152;49.202;18.744;2023-02-21T07:53:09;97033.09;;;7.44;68.80
70589;BME280;58152;49.202;18.744;2023-02-21T07:55:35;97043.34;;;7.48;69.24
70589;BME280;58152;49.202;18.744;2023-02-21T07:58:03;97033.84;;;7.46;69.38
70589;BME280;58152;49.202;18.744;2023-02-21T08:00:29;97042.31;;;7.52;69.54
70589;BME280;58152;49.202;18.744;2023-02-21T08:02:54;97037.22;;;7.49;69.49
70589;BME280;58152;49.202;18.744;2023-02-21T08:05:20;97047.41;;;7.55;69.19
70589;BME280;58152;49.202;18.744;2023-02-21T08:07:46;97043.09;;;7.54;69.40
70589;BME280;58152;49.202;18.744;2023-02-21T08:10:21;97035.38;;;7.51;69.53
70589;BME280;58152;49.202;18.744;2023-02-21T08:12:47;97056.78;;;7.61;70.02
70589;BME280;58152;49.202;18.744;2023-02-21T08:15:13;97054.28;;;7.58;69.42
70589;BME280;58152;49.202;18.744;2023-02-21T08:17:38;97044.63;;;7.60;69.63
70589;BME280;58152;49.202;18.744;2023-02-21T08:20:04;97046.28;;;7.62;69.46
70589;BME280;58152;49.202;18.744;2023-02-21T08:22:33;97050.50;;;7.65;69.73
70589;BME280;58152;49.202;18.744;2023-02-21T08:24:58;97044.25;;;7.69;69.55
70589;BME280;58152;49.202;18.744;2023-02-21T08:27:24;97054.53;;;7.74;69.24
70589;BME280;58152;49.202;18.744;2023-02-21T08:29:50;97048.53;;;7.72;69.11
70589;BME280;58152;49.202;18.744;2023-02-21T08:32:16;97054.44;;;7.77;69.80
70589;BME280;58152;49.202;18.744;2023-02-21T08:34:46;97051.75;;;7.78;69.60
70589;BME280;58152;49.202;18.744;2023-02-21T08:37:12;97056.09;;;7.79;69.62
70589;BME280;58152;49.202;18.744;2023-02-21T08:39:56;97069.84;;;7.83;69.75
70589;BME280;58152;49.202;18.744;2023-02-21T08:42:22;97062.00;;;7.83;69.19
70589;BME280;58152;49.202;18.744;2023-02-21T08:44:47;97061.91;;;7.86;69.46
70589;BME280;58152;49.202;18.744;2023-02-21T08:47:14;97064.22;;;7.94;69.52
70589;BME280;58152;49.202;18.744;2023-02-21T08:49:46;97065.25;;;7.89;69.59
70589;BME280;58152;49.202;18.744;2023-02-21T08:52:13;97056.31;;;7.95;69.39
70589;BME280;58152;49.202;18.744;2023-02-21T08:54:39;97060.59;;;7.98;69.43
70589;BME280;58152;49.202;18.744;2023-02-21T08:57:05;97061.28;;;8.01;69.14
70589;BME280;58152;49.202;18.744;2023-02-21T08:59:30;97064.63;;;8.05;69.34
70589;BME280;58152;49.202;18.744;2023-02-21T09:01:58;97059.41;;;8.05;69.02
70589;BME280;58152;49.202;18.744;2023-02-21T09:04:24;97072.25;;;8.11;69.74
70589;BME280;58152;49.202;18.744;2023-02-21T09:06:52;97074.78;;;8.12;68.87
70589;BME280;58152;49.202;18.744;2023-02-21T09:09:17;97071.16;;;8.17;69.05
70589;BME280;58152;49.202;18.744;2023-02-21T09:11:42;97074.44;;;8.22;69.06
70589;BME280;58152;49.202;18.744;2023-02-21T09:14:12;97076.00;;;8.26;68.97
70589;BME280;58152;49.202;18.744;2023-02-21T09:16:37;97075.81;;;8.30;68.84
70589;BME280;58152;49.202;18.744;2023-02-21T09:19:03;97079.16;;;8.34;68.88
70589;BME280;58152;49.202;18.744;2023-02-21T09:21:31;97068.72;;;8.34;69.14
70589;BME280;58152;49.202;18.744;2023-02-21T09:23:57;97062.44;;;8.38;68.63
70589;BME280;58152;49.202;18.744;2023-02-21T09:26:24;97075.31;;;8.43;68.94
70589;BME280;58152;49.202;18.744;2023-02-21T09:28:50;97083.06;;;8.46;68.84
70589;BME280;58152;49.202;18.744;2023-02-21T09:31:16;97073.44;;;8.46;69.12
70589;BME280;58152;49.202;18.744;2023-02-21T09:33:43;97070.53;;;8.54;69.07
70589;BME280;58152;49.202;18.744;2023-02-21T09:36:09;97073.78;;;8.59;68.92
70589;BME280;58152;49.202;18.744;2023-02-21T09:38:34;97081.63;;;8.59;68.57
70589;BME280;58152;49.202;18.744;2023-02-21T09:41:03;97080.72;;;8.60;68.29
70589;BME280;58152;49.202;18.744;2023-02-21T09:43:33;97077.13;;;8.62;68.76
70589;BME280;58152;49.202;18.744;2023-02-21T09:46:02;97082.41;;;8.61;68.81
70589;BME280;58152;49.202;18.744;2023-02-21T09:48:29;97080.78;;;8.58;68.49
70589;BME280;58152;49.202;18.744;2023-02-21T09:50:58;97088.25;;;8.68;68.56
70589;BME280;58152;49.202;18.744;2023-02-21T09:53:28;97078.84;;;8.63;68.74
70589;BME280;58152;49.202;18.744;2023-02-21T09:56:04;97077.00;;;8.65;68.47
70589;BME280;58152;49.202;18.744;2023-02-21T09:58:30;97077.88;;;8.66;68.62
70589;BME280;58152;49.202;18.744;2023-02-21T10:01:05;97085.53;;;8.71;68.11
70589;BME280;58152;49.202;18.744;2023-02-21T10:03:46;97095.09;;;8.70;68.70
70589;BME280;58152;49.202;18.744;2023-02-21T10:06:30;97075.09;;;8.69;68.73
70589;BME280;58152;49.202;18.744;2023-02-21T10:09:23;97062.09;;;8.68;68.57
70589;BME280;58152;49.202;18.744;2023-02-21T10:17:15;97074.06;;;8.73;68.51
70589;BME280;58152;49.202;18.744;2023-02-21T10:19:44;97074.72;;;8.78;68.81
70589;BME280;58152;49.202;18.744;2023-02-21T10:22:22;97064.25;;;8.78;68.74
70589;BME280;58152;49.202;18.744;2023-02-21T10:25:23;97060.47;;;8.85;68.58
70589;BME280;58152;49.202;18.744;2023-02-21T10:27:50;97069.16;;;8.86;68.63
70589;BME280;58152;49.202;18.744;2023-02-21T10:32:50;97068.13;;;8.90;68.82
70589;BME280;58152;49.202;18.744;2023-02-21T10:35:15;97079.16;;;8.97;68.19
70589;BME280;58152;49.202;18.744;2023-02-21T10:37:51;97082.69;;;8.96;68.55
70589;BME280;58152;49.202;18.744;2023-02-21T10:40:39;97071.94;;;9.02;68.11
70589;BME280;58152;49.202;18.744;2023-02-21T10:43:15;97078.19;;;8.99;68.32
70589;BME280;58152;49.202;18.744;2023-02-21T10:45:48;97074.66;;;9.00;67.91
70589;BME280;58152;49.202;18.744;2023-02-21T10:48:18;97065.03;;;9.01;68.07
70589;BME280;58152;49.202;18.744;2023-02-21T10:50:50;97065.81;;;9.03;68.19
70589;BME280;58152;49.202;18.744;2023-02-21T10:53:34;97064.09;;;9.02;67.80
70589;BME280;58152;49.202;18.744;2023-02-21T10:58:54;97071.56;;;9.11;67.69
70589;BME280;58152;49.202;18.744;2023-02-21T11:06:51;97073.84;;;9.19;68.05
70589;BME280;58152;49.202;18.744;2023-02-21T11:15:04;97070.19;;;9.23;67.81
70589;BME280;58152;49.202;18.744;2023-02-21T11:17:31;97069.25;;;9.24;67.63
70589;BME280;58152;49.202;18.744;2023-02-21T11:22:35;97063.09;;;9.25;67.71
70589;BME280;58152;49.202;18.744;2023-02-21T11:30:39;97072.06;;;9.19;67.42
70589;BME280;58152;49.202;18.744;2023-02-21T11:33:08;97067.56;;;9.23;67.93
70589;BME280;58152;49.202;18.744;2023-02-21T11:35:43;97071.88;;;9.24;67.83
70589;BME280;58152;49.202;18.744;2023-02-21T11:38:32;97055.44;;;9.20;67.64
70589;BME280;58152;49.202;18.744;2023-02-21T11:43:46;97076.97;;;9.27;67.76
70589;BME280;58152;49.202;18.744;2023-02-21T11:51:48;97061.28;;;9.27;67.67
70589;BME280;58152;49.202;18.744;2023-02-21T11:54:14;97074.34;;;9.27;67.72
70589;BME280;58152;49.202;18.744;2023-02-21T12:07:15;97079.50;;;9.28;67.98
70589;BME280;58152;49.202;18.744;2023-02-21T12:10:00;97080.56;;;9.24;67.43
70589;BME280;58152;49.202;18.744;2023-02-21T12:15:02;97083.06;;;9.27;67.84
70589;BME280;58152;49.202;18.744;2023-02-21T12:18:11;97082.22;;;9.27;67.77
70589;BME280;58152;49.202;18.744;2023-02-21T12:34:40;97079.94;;;9.38;68.04
70589;BME280;58152;49.202;18.744;2023-02-21T12:50:39;97058.53;;;9.49;67.87
70589;BME280;58152;49.202;18.744;2023-02-21T12:53:15;97051.44;;;9.51;67.83
70589;BME280;58152;49.202;18.744;2023-02-21T12:55:46;97062.44;;;9.59;67.67
70589;BME280;58152;49.202;18.744;2023-02-21T13:00:48;97056.13;;;9.63;67.01
70589;BME280;58152;49.202;18.744;2023-02-21T13:06:17;97049.75;;;9.68;66.70
70589;BME280;58152;49.202;18.744;2023-02-21T13:11:28;97046.84;;;9.75;66.65
70589;BME280;58152;49.202;18.744;2023-02-21T13:13:56;97039.06;;;9.73;66.96
70589;BME280;58152;49.202;18.744;2023-02-21T13:16:25;97038.94;;;9.76;66.55
70589;BME280;58152;49.202;18.744;2023-02-21T13:18:54;97038.72;;;9.81;66.67
70589;BME280;58152;49.202;18.744;2023-02-21T13:21:35;97043.66;;;9.87;66.04
70589;BME280;58152;49.202;18.744;2023-02-21T13:24:19;97041.03;;;9.87;66.05
70589;BME280;58152;49.202;18.744;2023-02-21T13:29:35;97041.53;;;9.95;65.98
70589;BME280;58152;49.202;18.744;2023-02-21T13:34:38;97042.84;;;10.04;66.07
70589;BME280;58152;49.202;18.744;2023-02-21T13:37:06;97047.88;;;10.08;65.91
70589;BME280;58152;49.202;18.744;2023-02-21T13:39:34;97031.59;;;10.02;66.03
70589;BME280;58152;49.202;18.744;2023-02-21T13:42:09;97040.69;;;10.12;65.65
70589;BME280;58152;49.202;18.744;2023-02-21T13:44:38;97029.31;;;10.13;65.28
70589;BME280;58152;49.202;18.744;2023-02-21T13:49:46;97058.44;;;10.60;64.04
70589;BME280;58152;49.202;18.744;2023-02-21T14:08:26;97047.56;;;10.33;64.10
70589;BME280;58152;49.202;18.744;2023-02-21T14:13:46;97057.28;;;10.31;63.91
70589;BME280;58152;49.202;18.744;2023-02-21T14:18:58;97036.59;;;10.25;63.66
70589;BME280;58152;49.202;18.744;2023-02-21T14:22:01;97047.03;;;10.27;63.71
70589;BME280;58152;49.202;18.744;2023-02-21T14:24:31;97045.38;;;10.24;63.81
70589;BME280;58152;49.202;18.744;2023-02-21T14:27:29;97036.88;;;10.19;64.02
70589;BME280;58152;49.202;18.744;2023-02-21T14:35:25;97060.47;;;10.19;63.80
70589;BME280;58152;49.202;18.744;2023-02-21T14:55:08;97060.97;;;10.08;64.01
70589;BME280;58152;49.202;18.744;2023-02-21T14:58:13;97061.97;;;10.06;64.08
70589;BME280;58152;49.202;18.744;2023-02-21T15:01:19;97070.75;;;10.05;64.23
70589;BME280;58152;49.202;18.744;2023-02-21T15:09:25;97068.50;;;9.97;64.98
70589;BME280;58152;49.202;18.744;2023-02-21T15:11:50;97066.09;;;9.92;65.02
70589;BME280;58152;49.202;18.744;2023-02-21T15:16:49;97070.41;;;9.93;65.53
70589;BME280;58152;49.202;18.744;2023-02-21T15:19:24;97071.19;;;9.96;66.15
70589;BME280;58152;49.202;18.744;2023-02-21T15:22:22;97077.28;;;9.96;66.15
70589;BME280;58152;49.202;18.744;2023-02-21T15:27:22;97079.41;;;9.88;65.91
70589;BME280;58152;49.202;18.744;2023-02-21T15:30:04;97079.31;;;9.89;65.87
70589;BME280;58152;49.202;18.744;2023-02-21T15:32:30;97076.88;;;9.86;66.16
70589;BME280;58152;49.202;18.744;2023-02-21T15:34:56;97092.59;;;9.86;65.84
70589;BME280;58152;49.202;18.744;2023-02-21T15:37:24;97082.09;;;9.86;66.00
70589;BME280;58152;49.202;18.744;2023-02-21T15:39:54;97088.41;;;9.82;65.86
70589;BME280;58152;49.202;18.744;2023-02-21T15:42:21;97093.56;;;9.84;66.32
70589;BME280;58152;49.202;18.744;2023-02-21T15:44:58;97089.47;;;9.78;65.99
70589;BME280;58152;49.202;18.744;2023-02-21T15:47:26;97096.41;;;9.79;66.18
70589;BME280;58152;49.202;18.744;2023-02-21T15:50:11;97099.81;;;9.81;66.63
70589;BME280;58152;49.202;18.744;2023-02-21T15:52:41;97100.66;;;9.82;66.94
70589;BME280;58152;49.202;18.744;2023-02-21T15:57:58;97099.94;;;9.78;66.36
70589;BME280;58152;49.202;18.744;2023-02-21T16:08:37;97097.88;;;9.66;66.29
70589;BME280;58152;49.202;18.744;2023-02-21T16:11:04;97096.19;;;9.65;66.70
70589;BME280;58152;49.202;18.744;2023-02-21T16:13:38;97103.06;;;9.67;66.38
70589;BME280;58152;49.202;18.744;2023-02-21T16:16:04;97094.56;;;9.62;66.17
70589;BME280;58152;49.202;18.744;2023-02-21T16:18:31;97093.56;;;9.65;66.64
70589;BME280;58152;49.202;18.744;2023-02-21T16:21:02;97097.25;;;9.61;66.53
70589;BME280;58152;49.202;18.744;2023-02-21T16:23:32;97094.78;;;9.58;66.90
70589;BME280;58152;49.202;18.744;2023-02-21T16:26:19;97096.41;;;9.60;66.63
70589;BME280;58152;49.202;18.744;2023-02-21T16:28:45;97106.03;;;9.60;66.74
70589;BME280;58152;49.202;18.744;2023-02-21T16:31:16;97107.66;;;9.62;66.72
70589;BME280;58152;49.202;18.744;2023-02-21T16:33:48;97105.94;;;9.61;66.94